EmailTwitter


Observations de surface / Québec / CYUL (71627)

Régions: Québec | Canada | États-Unis | Europe | France | UK | Ailleurs
Station
Affichage
Infos & localisation pour CYUL (71627) | Aide pour décoder les METARs

Observations prises le 2017-10-23 à 00H00 UTC à MONTREAL INTL A, QB (CYUL)

Etat du ciel: quelques nuages.

Température: 15.0 Celsius

Point de rosée: 10.0 Celsius

Humidité relative: 72%

Vents: Nord-nord-est à 13 km/h ou 7 noeuds.

Pression au niveau moyen de la mer: 102.38 kilopascals.

Calage altimétrique: 102.37 kilopascals ou 30.23 pouces de mercure.

Visibilité horizontale: 15.00 milles terrestres ou 24.00 kilomètres.

Observation METAR:

CYUL 230000Z 02007KT 15SM FEW190 FEW240 15/10 A3023 RMK AC1CI2 AC TR SLP238=